sensor_id;sensor_type;location;lat;lon;timestamp;pressure;altitude;pressure_sealevel;temperature;humidity
48874;BME280;66155;46.204;5.220;2023-10-13T00:04:42;98889.53;;;18.61;57.90
48874;BME280;66155;46.204;5.220;2023-10-13T00:09:42;98886.22;;;18.55;57.14
48874;BME280;66155;46.204;5.220;2023-10-13T00:14:43;98887.38;;;18.49;58.03
48874;BME280;66155;46.204;5.220;2023-10-13T00:19:46;98888.75;;;18.47;59.27
48874;BME280;66155;46.204;5.220;2023-10-13T00:24:47;98892.25;;;18.42;64.60
48874;BME280;66155;46.204;5.220;2023-10-13T00:29:47;98894.41;;;18.40;66.98
48874;BME280;66155;46.204;5.220;2023-10-13T00:34:50;98891.78;;;18.40;62.59
48874;BME280;66155;46.204;5.220;2023-10-13T00:39:56;98889.31;;;18.43;62.89
48874;BME280;66155;46.204;5.220;2023-10-13T00:44:57;98894.81;;;18.47;62.91
48874;BME280;66155;46.204;5.220;2023-10-13T00:49:58;98890.31;;;18.48;63.92
48874;BME280;66155;46.204;5.220;2023-10-13T00:54:59;98894.22;;;18.50;63.68
48874;BME280;66155;46.204;5.220;2023-10-13T01:00:00;98890.53;;;18.51;61.94
48874;BME280;66155;46.204;5.220;2023-10-13T01:05:25;98892.97;;;18.48;64.88
48874;BME280;66155;46.204;5.220;2023-10-13T01:10:26;98884.94;;;18.39;64.65
48874;BME280;66155;46.204;5.220;2023-10-13T01:15:27;98897.13;;;18.35;65.57
48874;BME280;66155;46.204;5.220;2023-10-13T01:20:30;98896.75;;;18.28;66.27
48874;BME280;66155;46.204;5.220;2023-10-13T01:25:30;98895.84;;;18.18;65.06
48874;BME280;66155;46.204;5.220;2023-10-13T01:30:31;98884.63;;;18.13;65.00
48874;BME280;66155;46.204;5.220;2023-10-13T01:35:31;98894.19;;;18.09;64.01
48874;BME280;66155;46.204;5.220;2023-10-13T01:40:47;98891.44;;;18.00;66.82
48874;BME280;66155;46.204;5.220;2023-10-13T01:45:51;98881.19;;;17.98;63.01
48874;BME280;66155;46.204;5.220;2023-10-13T01:50:56;98872.41;;;18.03;62.06
48874;BME280;66155;46.204;5.220;2023-10-13T01:56:00;98869.97;;;18.07;61.43
48874;BME280;66155;46.204;5.220;2023-10-13T02:01:05;98867.84;;;18.09;61.44
48874;BME280;66155;46.204;5.220;2023-10-13T02:06:07;98854.66;;;18.09;61.81
48874;BME280;66155;46.204;5.220;2023-10-13T02:11:10;98860.00;;;18.03;62.96
48874;BME280;66155;46.204;5.220;2023-10-13T02:16:10;98860.78;;;18.04;62.36
48874;BME280;66155;46.204;5.220;2023-10-13T02:21:12;98849.19;;;18.05;62.00
48874;BME280;66155;46.204;5.220;2023-10-13T02:26:15;98847.03;;;18.07;61.46
48874;BME280;66155;46.204;5.220;2023-10-13T02:31:21;98839.91;;;18.08;61.51
48874;BME280;66155;46.204;5.220;2023-10-13T02:36:24;98844.09;;;18.09;63.28
48874;BME280;66155;46.204;5.220;2023-10-13T02:41:36;98830.53;;;18.01;61.46
48874;BME280;66155;46.204;5.220;2023-10-13T02:46:40;98827.19;;;17.96;61.14
48874;BME280;66155;46.204;5.220;2023-10-13T02:51:40;98825.16;;;17.93;63.32
48874;BME280;66155;46.204;5.220;2023-10-13T02:56:42;98815.94;;;17.90;61.75
48874;BME280;66155;46.204;5.220;2023-10-13T03:01:57;98815.66;;;17.92;61.65
48874;BME280;66155;46.204;5.220;2023-10-13T03:06:58;98805.88;;;17.92;61.96
48874;BME280;66155;46.204;5.220;2023-10-13T03:11:59;98805.41;;;17.90;61.70
48874;BME280;66155;46.204;5.220;2023-10-13T03:17:01;98798.38;;;17.85;63.13
48874;BME280;66155;46.204;5.220;2023-10-13T03:22:04;98795.81;;;17.80;62.63
48874;BME280;66155;46.204;5.220;2023-10-13T03:27:09;98790.84;;;17.79;63.17
48874;BME280;66155;46.204;5.220;2023-10-13T03:32:11;98794.81;;;17.76;62.98
48874;BME280;66155;46.204;5.220;2023-10-13T03:37:12;98787.22;;;17.75;62.83
48874;BME280;66155;46.204;5.220;2023-10-13T03:42:18;98794.63;;;17.73;63.27
48874;BME280;66155;46.204;5.220;2023-10-13T03:47:19;98787.88;;;17.66;62.28
48874;BME280;66155;46.204;5.220;2023-10-13T03:52:26;98782.41;;;17.63;62.71
48874;BME280;66155;46.204;5.220;2023-10-13T03:57:29;98775.16;;;17.55;63.20
48874;BME280;66155;46.204;5.220;2023-10-13T04:02:33;98780.81;;;17.48;63.27
48874;BME280;66155;46.204;5.220;2023-10-13T04:07:34;98778.78;;;17.45;63.85
48874;BME280;66155;46.204;5.220;2023-10-13T04:12:37;98779.81;;;17.44;63.69
48874;BME280;66155;46.204;5.220;2023-10-13T04:17:40;98777.28;;;17.39;63.98
48874;BME280;66155;46.204;5.220;2023-10-13T04:22:44;98773.59;;;17.40;63.15
48874;BME280;66155;46.204;5.220;2023-10-13T04:27:47;98773.00;;;17.43;63.90
48874;BME280;66155;46.204;5.220;2023-10-13T04:33:06;98771.44;;;17.42;63.35
48874;BME280;66155;46.204;5.220;2023-10-13T04:38:17;98761.97;;;17.41;63.03
48874;BME280;66155;46.204;5.220;2023-10-13T04:43:20;98766.16;;;17.42;63.13
48874;BME280;66155;46.204;5.220;2023-10-13T04:48:33;98757.28;;;17.38;63.40
48874;BME280;66155;46.204;5.220;2023-10-13T04:53:38;98767.63;;;17.34;66.39
48874;BME280;66155;46.204;5.220;2023-10-13T04:58:58;98768.56;;;17.24;66.45
48874;BME280;66155;46.204;5.220;2023-10-13T05:04:16;98762.66;;;17.14;65.89
48874;BME280;66155;46.204;5.220;2023-10-13T05:09:38;98769.38;;;17.06;68.42
48874;BME280;66155;46.204;5.220;2023-10-13T05:14:57;98769.16;;;17.02;69.17
48874;BME280;66155;46.204;5.220;2023-10-13T05:20:16;98762.03;;;17.03;69.65
48874;BME280;66155;46.204;5.220;2023-10-13T05:25:51;98767.59;;;17.01;71.18
48874;BME280;66155;46.204;5.220;2023-10-13T05:31:10;98774.16;;;17.04;71.93
48874;BME280;66155;46.204;5.220;2023-10-13T05:36:29;98773.00;;;17.10;71.53
48874;BME280;66155;46.204;5.220;2023-10-13T05:41:48;98777.13;;;17.16;71.37
48874;BME280;66155;46.204;5.220;2023-10-13T05:47:07;98776.25;;;17.21;72.58
48874;BME280;66155;46.204;5.220;2023-10-13T05:52:33;98781.94;;;17.28;71.46
48874;BME280;66155;46.204;5.220;2023-10-13T05:57:52;98788.97;;;17.33;71.71
48874;BME280;66155;46.204;5.220;2023-10-13T06:03:11;98784.97;;;17.35;71.55
48874;BME280;66155;46.204;5.220;2023-10-13T06:08:30;98784.88;;;17.40;72.09
48874;BME280;66155;46.204;5.220;2023-10-13T06:13:49;98783.44;;;17.48;70.73
48874;BME280;66155;46.204;5.220;2023-10-13T06:19:07;98787.00;;;17.57;70.78
48874;BME280;66155;46.204;5.220;2023-10-13T06:24:26;98786.09;;;17.62;71.78
48874;BME280;66155;46.204;5.220;2023-10-13T06:29:46;98792.38;;;17.66;73.31
48874;BME280;66155;46.204;5.220;2023-10-13T06:34:46;98799.94;;;17.86;71.63
48874;BME280;66155;46.204;5.220;2023-10-13T06:39:51;98798.28;;;18.04;71.87
48874;BME280;66155;46.204;5.220;2023-10-13T06:44:54;98792.25;;;18.04;72.11
48874;BME280;66155;46.204;5.220;2023-10-13T06:49:55;98803.06;;;18.02;71.20
48874;BME280;66155;46.204;5.220;2023-10-13T06:54:56;98806.19;;;18.04;71.77
48874;BME280;66155;46.204;5.220;2023-10-13T06:59:58;98801.22;;;18.03;72.86
48874;BME280;66155;46.204;5.220;2023-10-13T07:04:59;98804.03;;;18.07;73.07
48874;BME280;66155;46.204;5.220;2023-10-13T07:10:11;98811.28;;;18.15;72.29
48874;BME280;66155;46.204;5.220;2023-10-13T07:15:12;98815.50;;;18.16;73.61
48874;BME280;66155;46.204;5.220;2023-10-13T07:20:19;98815.97;;;18.18;74.00
48874;BME280;66155;46.204;5.220;2023-10-13T07:25:33;98812.97;;;18.24;73.14
48874;BME280;66155;46.204;5.220;2023-10-13T07:30:39;98822.69;;;18.24;74.17
48874;BME280;66155;46.204;5.220;2023-10-13T07:36:03;98824.47;;;18.29;73.21
48874;BME280;66155;46.204;5.220;2023-10-13T07:41:20;98817.22;;;18.34;73.06
48874;BME280;66155;46.204;5.220;2023-10-13T07:46:22;98827.41;;;18.41;72.86
48874;BME280;66155;46.204;5.220;2023-10-13T07:51:30;98831.19;;;18.49;72.27
48874;BME280;66155;46.204;5.220;2023-10-13T07:56:33;98822.88;;;18.55;71.61
48874;BME280;66155;46.204;5.220;2023-10-13T08:01:35;98813.22;;;18.51;72.04
48874;BME280;66155;46.204;5.220;2023-10-13T08:06:36;98826.69;;;18.49;72.74
48874;BME280;66155;46.204;5.220;2023-10-13T08:11:37;98814.50;;;18.53;72.13
48874;BME280;66155;46.204;5.220;2023-10-13T08:16:39;98824.94;;;18.58;72.54
48874;BME280;66155;46.204;5.220;2023-10-13T08:21:48;98820.16;;;18.60;71.96
48874;BME280;66155;46.204;5.220;2023-10-13T08:27:21;98815.53;;;18.66;71.92
48874;BME280;66155;46.204;5.220;2023-10-13T08:32:40;98808.00;;;18.73;71.71
48874;BME280;66155;46.204;5.220;2023-10-13T08:37:54;98796.84;;;18.76;71.59
48874;BME280;66155;46.204;5.220;2023-10-13T08:42:56;98801.44;;;18.85;71.37
48874;BME280;66155;46.204;5.220;2023-10-13T08:48:05;98781.38;;;18.97;71.03
48874;BME280;66155;46.204;5.220;2023-10-13T08:53:08;98794.81;;;19.10;70.07
48874;BME280;66155;46.204;5.220;2023-10-13T08:58:26;98788.97;;;19.22;69.81
48874;BME280;66155;46.204;5.220;2023-10-13T09:03:47;98783.75;;;19.30;69.28
48874;BME280;66155;46.204;5.220;2023-10-13T09:08:49;98805.72;;;19.40;69.60
48874;BME280;66155;46.204;5.220;2023-10-13T09:14:13;98787.56;;;19.47;69.00
48874;BME280;66155;46.204;5.220;2023-10-13T09:19:33;98786.84;;;19.55;68.46
48874;BME280;66155;46.204;5.220;2023-10-13T09:24:44;98780.22;;;19.66;68.41
48874;BME280;66155;46.204;5.220;2023-10-13T09:29:55;98760.50;;;19.72;67.39
48874;BME280;66155;46.204;5.220;2023-10-13T09:35:01;98768.16;;;19.74;67.40
48874;BME280;66155;46.204;5.220;2023-10-13T09:40:02;98757.63;;;19.83;67.68
48874;BME280;66155;46.204;5.220;2023-10-13T09:45:07;98757.16;;;19.89;67.02
48874;BME280;66155;46.204;5.220;2023-10-13T09:50:13;98758.25;;;19.88;66.90
48874;BME280;66155;46.204;5.220;2023-10-13T09:55:28;98760.97;;;20.06;66.59
48874;BME280;66155;46.204;5.220;2023-10-13T10:00:31;98767.97;;;20.10;66.54
48874;BME280;66155;46.204;5.220;2023-10-13T10:05:34;98760.22;;;20.23;66.55
48874;BME280;66155;46.204;5.220;2023-10-13T10:11:07;98758.06;;;20.33;66.19
48874;BME280;66155;46.204;5.220;2023-10-13T10:16:20;98753.88;;;20.41;65.88
48874;BME280;66155;46.204;5.220;2023-10-13T10:21:36;98733.94;;;20.52;65.78
48874;BME280;66155;46.204;5.220;2023-10-13T10:26:37;98736.63;;;20.61;65.25
48874;BME280;66155;46.204;5.220;2023-10-13T10:31:37;98737.88;;;20.73;64.84
48874;BME280;66155;46.204;5.220;2023-10-13T10:36:53;98735.84;;;20.87;64.53
48874;BME280;66155;46.204;5.220;2023-10-13T10:41:53;98722.13;;;21.02;63.74
48874;BME280;66155;46.204;5.220;2023-10-13T10:47:14;98705.25;;;21.16;63.05
48874;BME280;66155;46.204;5.220;2023-10-13T10:52:35;98705.66;;;21.35;62.83
48874;BME280;66155;46.204;5.220;2023-10-13T10:57:42;98685.69;;;21.47;62.06
48874;BME280;66155;46.204;5.220;2023-10-13T11:02:55;98693.75;;;21.59;60.73
48874;BME280;66155;46.204;5.220;2023-10-13T11:07:56;98691.78;;;21.77;60.49
48874;BME280;66155;46.204;5.220;2023-10-13T11:12:58;98686.13;;;21.87;59.97
48874;BME280;66155;46.204;5.220;2023-10-13T11:18:13;98679.03;;;22.00;60.26
48874;BME280;66155;46.204;5.220;2023-10-13T11:23:21;98665.69;;;22.09;59.68
48874;BME280;66155;46.204;5.220;2023-10-13T11:28:26;98662.78;;;22.23;58.56
48874;BME280;66155;46.204;5.220;2023-10-13T11:33:29;98647.84;;;22.39;57.90
48874;BME280;66155;46.204;5.220;2023-10-13T11:38:31;98642.50;;;22.60;55.39
48874;BME280;66155;46.204;5.220;2023-10-13T11:48:44;98612.47;;;22.93;53.12
48874;BME280;66155;46.204;5.220;2023-10-13T11:53:46;98622.38;;;23.05;54.44
48874;BME280;66155;46.204;5.220;2023-10-13T11:58:52;98610.75;;;23.09;52.37
48874;BME280;66155;46.204;5.220;2023-10-13T12:03:52;98611.97;;;23.24;52.42
48874;BME280;66155;46.204;5.220;2023-10-13T12:09:11;98580.84;;;23.37;51.84
48874;BME280;66155;46.204;5.220;2023-10-13T12:14:18;98595.59;;;23.47;51.58
48874;BME280;66155;46.204;5.220;2023-10-13T12:19:37;98590.13;;;23.56;50.13
48874;BME280;66155;46.204;5.220;2023-10-13T12:24:39;98566.69;;;23.86;50.07
48874;BME280;66155;46.204;5.220;2023-10-13T12:29:39;98565.47;;;24.24;48.71
48874;BME280;66155;46.204;5.220;2023-10-13T12:34:46;98552.47;;;24.66;48.40
48874;BME280;66155;46.204;5.220;2023-10-13T12:40:22;98536.72;;;25.25;46.09
48874;BME280;66155;46.204;5.220;2023-10-13T12:45:45;98534.25;;;25.52;44.70
48874;BME280;66155;46.204;5.220;2023-10-13T12:51:04;98511.34;;;25.70;43.74
48874;BME280;66155;46.204;5.220;2023-10-13T12:56:20;98518.25;;;25.71;43.40
48874;BME280;66155;46.204;5.220;2023-10-13T13:01:26;98498.94;;;25.78;42.64
48874;BME280;66155;46.204;5.220;2023-10-13T13:06:32;98488.34;;;25.82;42.44
48874;BME280;66155;46.204;5.220;2023-10-13T13:11:33;98497.66;;;26.11;41.67
48874;BME280;66155;46.204;5.220;2023-10-13T13:16:39;98496.31;;;26.44;42.12
48874;BME280;66155;46.204;5.220;2023-10-13T13:21:39;98488.66;;;26.42;41.58
48874;BME280;66155;46.204;5.220;2023-10-13T13:32:36;98483.00;;;26.24;41.12
48874;BME280;66155;46.204;5.220;2023-10-13T13:37:37;98484.00;;;26.39;41.77
48874;BME280;66155;46.204;5.220;2023-10-13T13:42:37;98480.16;;;26.60;41.59
48874;BME280;66155;46.204;5.220;2023-10-13T13:47:39;98468.91;;;26.50;40.89
48874;BME280;66155;46.204;5.220;2023-10-13T13:52:39;98466.97;;;26.47;41.59
48874;BME280;66155;46.204;5.220;2023-10-13T13:57:45;98470.41;;;26.48;42.02
48874;BME280;66155;46.204;5.220;2023-10-13T14:02:47;98460.06;;;26.69;41.39
48874;BME280;66155;46.204;5.220;2023-10-13T14:07:47;98471.13;;;26.94;40.40
48874;BME280;66155;46.204;5.220;2023-10-13T14:12:50;98452.38;;;26.91;39.73
48874;BME280;66155;46.204;5.220;2023-10-13T14:17:51;98463.56;;;27.00;39.96
48874;BME280;66155;46.204;5.220;2023-10-13T14:22:51;98465.16;;;27.05;39.14
48874;BME280;66155;46.204;5.220;2023-10-13T14:27:52;98451.78;;;26.51;39.56
48874;BME280;66155;46.204;5.220;2023-10-13T14:32:53;98438.00;;;26.49;39.77
48874;BME280;66155;46.204;5.220;2023-10-13T14:37:58;98423.56;;;26.81;39.47
48874;BME280;66155;46.204;5.220;2023-10-13T14:42:58;98435.75;;;26.51;40.04
48874;BME280;66155;46.204;5.220;2023-10-13T14:47:59;98434.97;;;26.51;39.87
48874;BME280;66155;46.204;5.220;2023-10-13T14:52:59;98441.16;;;26.82;39.45
48874;BME280;66155;46.204;5.220;2023-10-13T14:58:00;98446.25;;;26.90;39.41
48874;BME280;66155;46.204;5.220;2023-10-13T15:03:04;98440.81;;;26.83;39.97
48874;BME280;66155;46.204;5.220;2023-10-13T15:08:06;98433.41;;;26.50;40.38
48874;BME280;66155;46.204;5.220;2023-10-13T15:13:06;98438.97;;;26.37;40.39
48874;BME280;66155;46.204;5.220;2023-10-13T15:18:09;98428.72;;;26.43;40.43
48874;BME280;66155;46.204;5.220;2023-10-13T15:23:11;98425.19;;;26.35;40.87
48874;BME280;66155;46.204;5.220;2023-10-13T15:28:15;98425.91;;;26.32;40.93
48874;BME280;66155;46.204;5.220;2023-10-13T15:33:21;98434.44;;;26.18;40.71
48874;BME280;66155;46.204;5.220;2023-10-13T15:38:21;98433.31;;;25.96;41.11
48874;BME280;66155;46.204;5.220;2023-10-13T15:43:25;98427.06;;;25.89;41.15
48874;BME280;66155;46.204;5.220;2023-10-13T15:48:25;98417.69;;;25.56;42.30
48874;BME280;66155;46.204;5.220;2023-10-13T15:53:26;98429.78;;;25.30;42.88
48874;BME280;66155;46.204;5.220;2023-10-13T15:58:26;98417.59;;;25.13;43.68
48874;BME280;66155;46.204;5.220;2023-10-13T16:03:27;98412.91;;;25.07;43.83
48874;BME280;66155;46.204;5.220;2023-10-13T16:08:27;98420.88;;;24.87;44.17
48874;BME280;66155;46.204;5.220;2023-10-13T16:13:28;98430.81;;;24.55;45.52
48874;BME280;66155;46.204;5.220;2023-10-13T16:18:28;98432.78;;;24.42;46.49
48874;BME280;66155;46.204;5.220;2023-10-13T16:23:32;98445.06;;;24.15;47.64
48874;BME280;66155;46.204;5.220;2023-10-13T16:28:34;98436.59;;;23.81;49.14
48874;BME280;66155;46.204;5.220;2023-10-13T16:33:36;98427.56;;;23.57;49.87
48874;BME280;66155;46.204;5.220;2023-10-13T16:38:37;98414.22;;;23.41;50.04
48874;BME280;66155;46.204;5.220;2023-10-13T16:43:39;98421.28;;;23.21;49.67
48874;BME280;66155;46.204;5.220;2023-10-13T16:48:41;98434.56;;;22.96;51.92
48874;BME280;66155;46.204;5.220;2023-10-13T16:53:42;98443.00;;;22.86;52.70
48874;BME280;66155;46.204;5.220;2023-10-13T16:58:46;98441.91;;;22.75;53.09
48874;BME280;66155;46.204;5.220;2023-10-13T17:03:48;98441.47;;;22.61;53.23
48874;BME280;66155;46.204;5.220;2023-10-13T17:08:50;98438.94;;;22.52;54.41
48874;BME280;66155;46.204;5.220;2023-10-13T17:13:53;98455.41;;;22.45;54.85
48874;BME280;66155;46.204;5.220;2023-10-13T17:18:53;98466.91;;;22.37;54.98
48874;BME280;66155;46.204;5.220;2023-10-13T17:23:55;98462.00;;;22.27;56.21
48874;BME280;66155;46.204;5.220;2023-10-13T17:28:56;98459.97;;;22.24;55.69
48874;BME280;66155;46.204;5.220;2023-10-13T17:34:02;98464.09;;;22.21;56.17
48874;BME280;66155;46.204;5.220;2023-10-13T17:39:03;98464.19;;;22.12;56.19
48874;BME280;66155;46.204;5.220;2023-10-13T17:44:04;98467.34;;;22.06;57.28
48874;BME280;66155;46.204;5.220;2023-10-13T17:49:08;98467.34;;;22.06;56.52
48874;BME280;66155;46.204;5.220;2023-10-13T17:54:08;98473.19;;;21.99;57.57
48874;BME280;66155;46.204;5.220;2023-10-13T17:59:09;98474.94;;;21.95;58.19
48874;BME280;66155;46.204;5.220;2023-10-13T18:04:12;98454.38;;;21.92;58.22
48874;BME280;66155;46.204;5.220;2023-10-13T18:09:14;98468.75;;;21.91;58.70
48874;BME280;66155;46.204;5.220;2023-10-13T18:14:17;98482.34;;;21.89;59.18
48874;BME280;66155;46.204;5.220;2023-10-13T18:19:19;98461.44;;;21.88;59.44
48874;BME280;66155;46.204;5.220;2023-10-13T18:24:20;98484.56;;;21.87;59.47
48874;BME280;66155;46.204;5.220;2023-10-13T18:29:23;98492.50;;;21.87;59.29
48874;BME280;66155;46.204;5.220;2023-10-13T18:34:23;98495.16;;;21.87;59.56
48874;BME280;66155;46.204;5.220;2023-10-13T18:39:24;98504.31;;;21.90;59.25
48874;BME280;66155;46.204;5.220;2023-10-13T18:44:34;98493.41;;;21.91;59.04
48874;BME280;66155;46.204;5.220;2023-10-13T18:49:35;98512.72;;;21.92;59.21
48874;BME280;66155;46.204;5.220;2023-10-13T18:54:38;98504.78;;;21.92;59.68
48874;BME280;66155;46.204;5.220;2023-10-13T18:59:40;98513.53;;;21.92;59.56
48874;BME280;66155;46.204;5.220;2023-10-13T19:04:41;98507.88;;;21.94;59.27
48874;BME280;66155;46.204;5.220;2023-10-13T19:09:42;98501.91;;;21.97;59.51
48874;BME280;66155;46.204;5.220;2023-10-13T19:14:44;98515.94;;;21.97;59.31
48874;BME280;66155;46.204;5.220;2023-10-13T19:19:45;98521.59;;;21.96;59.50
48874;BME280;66155;46.204;5.220;2023-10-13T19:24:45;98530.47;;;22.00;59.04
48874;BME280;66155;46.204;5.220;2023-10-13T19:29:45;98529.22;;;21.97;59.04
48874;BME280;66155;46.204;5.220;2023-10-13T19:34:46;98525.78;;;21.97;59.05
48874;BME280;66155;46.204;5.220;2023-10-13T19:39:47;98549.03;;;22.00;59.00
48874;BME280;66155;46.204;5.220;2023-10-13T19:44:47;98549.66;;;21.97;59.52
48874;BME280;66155;46.204;5.220;2023-10-13T19:49:48;98526.91;;;21.96;59.67
48874;BME280;66155;46.204;5.220;2023-10-13T19:54:48;98546.88;;;21.93;59.71
48874;BME280;66155;46.204;5.220;2023-10-13T19:59:48;98541.13;;;21.91;60.31
48874;BME280;66155;46.204;5.220;2023-10-13T20:04:50;98548.31;;;21.91;60.25
48874;BME280;66155;46.204;5.220;2023-10-13T20:09:52;98554.72;;;21.90;60.34
48874;BME280;66155;46.204;5.220;2023-10-13T20:14:52;98529.50;;;21.83;60.97
48874;BME280;66155;46.204;5.220;2023-10-13T20:19:54;98551.19;;;21.86;60.82
48874;BME280;66155;46.204;5.220;2023-10-13T20:24:55;98535.78;;;21.79;60.77
48874;BME280;66155;46.204;5.220;2023-10-13T20:29:56;98542.97;;;21.78;60.98
48874;BME280;66155;46.204;5.220;2023-10-13T20:34:57;98547.69;;;21.73;61.04
48874;BME280;66155;46.204;5.220;2023-10-13T20:40:01;98523.34;;;21.71;61.37
48874;BME280;66155;46.204;5.220;2023-10-13T20:45:12;98534.31;;;21.69;61.01
48874;BME280;66155;46.204;5.220;2023-10-13T20:50:12;98535.72;;;21.67;61.50
48874;BME280;66155;46.204;5.220;2023-10-13T20:55:13;98526.66;;;21.68;61.65
48874;BME280;66155;46.204;5.220;2023-10-13T21:00:17;98535.25;;;21.64;61.71
48874;BME280;66155;46.204;5.220;2023-10-13T21:05:24;98544.44;;;21.67;61.91
48874;BME280;66155;46.204;5.220;2023-10-13T21:10:24;98540.88;;;21.63;62.68
48874;BME280;66155;46.204;5.220;2023-10-13T21:15:25;98545.75;;;21.61;63.20
48874;BME280;66155;46.204;5.220;2023-10-13T21:20:25;98567.09;;;21.64;63.13
48874;BME280;66155;46.204;5.220;2023-10-13T21:25:26;98567.41;;;21.63;63.69
48874;BME280;66155;46.204;5.220;2023-10-13T21:30:28;98558.09;;;21.57;64.52
48874;BME280;66155;46.204;5.220;2023-10-13T21:35:30;98551.53;;;21.54;64.74
48874;BME280;66155;46.204;5.220;2023-10-13T21:40:32;98563.91;;;21.50;64.49
48874;BME280;66155;46.204;5.220;2023-10-13T21:45:34;98555.81;;;21.47;64.92
48874;BME280;66155;46.204;5.220;2023-10-13T21:50:36;98568.59;;;21.44;64.16
48874;BME280;66155;46.204;5.220;2023-10-13T21:55:37;98548.03;;;21.41;64.76
48874;BME280;66155;46.204;5.220;2023-10-13T22:00:37;98542.72;;;21.41;64.58
48874;BME280;66155;46.204;5.220;2023-10-13T22:05:38;98547.13;;;21.37;64.93
48874;BME280;66155;46.204;5.220;2023-10-13T22:10:39;98562.22;;;21.37;64.60
48874;BME280;66155;46.204;5.220;2023-10-13T22:15:39;98579.69;;;21.38;64.90
48874;BME280;66155;46.204;5.220;2023-10-13T22:20:40;98575.66;;;21.32;65.48
48874;BME280;66155;46.204;5.220;2023-10-13T22:25:40;98564.47;;;21.26;66.05
48874;BME280;66155;46.204;5.220;2023-10-13T22:30:41;98581.00;;;21.23;66.26
48874;BME280;66155;46.204;5.220;2023-10-13T22:35:41;98588.19;;;21.22;66.44
48874;BME280;66155;46.204;5.220;2023-10-13T22:40:42;98596.75;;;21.19;67.03
48874;BME280;66155;46.204;5.220;2023-10-13T22:45:43;98588.34;;;21.17;66.63
48874;BME280;66155;46.204;5.220;2023-10-13T22:50:44;98590.84;;;21.14;67.25
48874;BME280;66155;46.204;5.220;2023-10-13T22:55:45;98571.09;;;21.11;67.23
48874;BME280;66155;46.204;5.220;2023-10-13T23:00:46;98599.94;;;21.04;68.01
48874;BME280;66155;46.204;5.220;2023-10-13T23:05:49;98590.75;;;21.01;68.29
48874;BME280;66155;46.204;5.220;2023-10-13T23:10:53;98600.91;;;20.99;68.63
48874;BME280;66155;46.204;5.220;2023-10-13T23:15:53;98603.84;;;20.98;68.45
48874;BME280;66155;46.204;5.220;2023-10-13T23:20:54;98620.06;;;20.96;68.64
48874;BME280;66155;46.204;5.220;2023-10-13T23:25:55;98611.34;;;20.96;68.64
48874;BME280;66155;46.204;5.220;2023-10-13T23:30:56;98618.53;;;20.95;68.77
48874;BME280;66155;46.204;5.220;2023-10-13T23:35:57;98624.13;;;20.94;68.69
48874;BME280;66155;46.204;5.220;2023-10-13T23:40:57;98629.44;;;20.94;68.73
48874;BME280;66155;46.204;5.220;2023-10-13T23:45:59;98642.34;;;20.95;68.65
48874;BME280;66155;46.204;5.220;2023-10-13T23:51:01;98637.66;;;21.01;67.85
48874;BME280;66155;46.204;5.220;2023-10-13T23:56:08;98635.63;;;20.98;68.09
